sensor_id;sensor_type;location;lat;lon;timestamp;P1;durP1;ratioP1;P2;durP2;ratioP2
49730;SDS011;35622;52.008;5.426;2023-12-28T00:02:21;5.88;;;2.50;;
49730;SDS011;35622;52.008;5.426;2023-12-28T00:04:46;6.47;;;2.38;;
49730;SDS011;35622;52.008;5.426;2023-12-28T00:07:12;5.78;;;2.58;;
49730;SDS011;35622;52.008;5.426;2023-12-28T00:09:38;6.95;;;2.65;;
49730;SDS011;35622;52.008;5.426;2023-12-28T00:12:04;4.35;;;2.28;;
49730;SDS011;35622;52.008;5.426;2023-12-28T00:14:30;5.07;;;2.67;;
49730;SDS011;35622;52.008;5.426;2023-12-28T00:16:55;4.25;;;2.35;;
49730;SDS011;35622;52.008;5.426;2023-12-28T00:19:21;4.53;;;2.65;;
49730;SDS011;35622;52.008;5.426;2023-12-28T00:21:47;4.72;;;2.67;;
49730;SDS011;35622;52.008;5.426;2023-12-28T00:24:13;5.70;;;2.60;;
49730;SDS011;35622;52.008;5.426;2023-12-28T00:26:40;6.35;;;2.92;;
49730;SDS011;35622;52.008;5.426;2023-12-28T00:29:05;5.70;;;2.83;;
49730;SDS011;35622;52.008;5.426;2023-12-28T00:31:31;6.53;;;2.80;;
49730;SDS011;35622;52.008;5.426;2023-12-28T00:33:57;5.97;;;2.83;;
49730;SDS011;35622;52.008;5.426;2023-12-28T00:36:22;10.32;;;3.03;;
49730;SDS011;35622;52.008;5.426;2023-12-28T00:38:48;7.10;;;3.13;;
49730;SDS011;35622;52.008;5.426;2023-12-28T00:41:13;7.13;;;2.95;;
49730;SDS011;35622;52.008;5.426;2023-12-28T00:43:39;4.50;;;2.90;;
49730;SDS011;35622;52.008;5.426;2023-12-28T00:46:05;4.55;;;3.03;;
49730;SDS011;35622;52.008;5.426;2023-12-28T00:48:30;7.43;;;2.70;;
49730;SDS011;35622;52.008;5.426;2023-12-28T00:50:56;4.78;;;2.97;;
49730;SDS011;35622;52.008;5.426;2023-12-28T00:53:24;5.10;;;2.97;;
49730;SDS011;35622;52.008;5.426;2023-12-28T00:55:51;6.07;;;2.80;;
49730;SDS011;35622;52.008;5.426;2023-12-28T00:58:17;5.72;;;2.78;;
49730;SDS011;35622;52.008;5.426;2023-12-28T01:00:43;5.78;;;3.10;;
49730;SDS011;35622;52.008;5.426;2023-12-28T01:03:09;5.03;;;2.58;;
49730;SDS011;35622;52.008;5.426;2023-12-28T01:05:34;6.97;;;2.85;;
49730;SDS011;35622;52.008;5.426;2023-12-28T01:08:00;7.90;;;2.80;;
49730;SDS011;35622;52.008;5.426;2023-12-28T01:10:25;5.45;;;2.50;;
49730;SDS011;35622;52.008;5.426;2023-12-28T01:12:51;4.95;;;2.45;;
49730;SDS011;35622;52.008;5.426;2023-12-28T01:15:17;3.97;;;2.50;;
49730;SDS011;35622;52.008;5.426;2023-12-28T01:17:42;8.98;;;2.85;;
49730;SDS011;35622;52.008;5.426;2023-12-28T01:20:08;4.50;;;2.42;;
49730;SDS011;35622;52.008;5.426;2023-12-28T01:22:34;5.57;;;2.60;;
49730;SDS011;35622;52.008;5.426;2023-12-28T01:25:00;3.63;;;2.53;;
49730;SDS011;35622;52.008;5.426;2023-12-28T01:27:26;5.05;;;2.80;;
49730;SDS011;35622;52.008;5.426;2023-12-28T01:29:51;6.50;;;2.65;;
49730;SDS011;35622;52.008;5.426;2023-12-28T01:32:17;6.65;;;2.53;;
49730;SDS011;35622;52.008;5.426;2023-12-28T01:34:42;6.45;;;2.50;;
49730;SDS011;35622;52.008;5.426;2023-12-28T01:37:08;5.15;;;2.60;;
49730;SDS011;35622;52.008;5.426;2023-12-28T01:39:34;6.45;;;2.67;;
49730;SDS011;35622;52.008;5.426;2023-12-28T01:41:59;6.07;;;2.95;;
49730;SDS011;35622;52.008;5.426;2023-12-28T01:44:25;6.22;;;2.58;;
49730;SDS011;35622;52.008;5.426;2023-12-28T01:46:51;4.18;;;2.60;;
49730;SDS011;35622;52.008;5.426;2023-12-28T01:49:17;5.25;;;2.63;;
49730;SDS011;35622;52.008;5.426;2023-12-28T01:51:43;4.78;;;2.55;;
49730;SDS011;35622;52.008;5.426;2023-12-28T01:54:10;6.85;;;2.75;;
49730;SDS011;35622;52.008;5.426;2023-12-28T01:56:36;8.50;;;2.83;;
49730;SDS011;35622;52.008;5.426;2023-12-28T01:59:02;6.13;;;2.55;;
49730;SDS011;35622;52.008;5.426;2023-12-28T02:01:28;5.15;;;2.97;;
49730;SDS011;35622;52.008;5.426;2023-12-28T02:03:54;6.47;;;3.00;;
49730;SDS011;35622;52.008;5.426;2023-12-28T02:06:21;7.75;;;3.20;;
49730;SDS011;35622;52.008;5.426;2023-12-28T02:08:48;7.57;;;3.05;;
49730;SDS011;35622;52.008;5.426;2023-12-28T02:11:14;5.40;;;2.90;;
49730;SDS011;35622;52.008;5.426;2023-12-28T02:13:40;6.03;;;2.85;;
49730;SDS011;35622;52.008;5.426;2023-12-28T02:18:34;4.63;;;2.90;;
49730;SDS011;35622;52.008;5.426;2023-12-28T02:21:06;5.60;;;2.67;;
49730;SDS011;35622;52.008;5.426;2023-12-28T02:23:34;4.55;;;2.72;;
49730;SDS011;35622;52.008;5.426;2023-12-28T02:25:59;6.05;;;2.40;;
49730;SDS011;35622;52.008;5.426;2023-12-28T02:28:26;5.63;;;2.30;;
49730;SDS011;35622;52.008;5.426;2023-12-28T02:30:51;5.80;;;2.40;;
49730;SDS011;35622;52.008;5.426;2023-12-28T02:35:52;5.22;;;2.42;;
49730;SDS011;35622;52.008;5.426;2023-12-28T02:38:22;5.72;;;2.08;;
49730;SDS011;35622;52.008;5.426;2023-12-28T02:40:50;9.82;;;2.10;;
49730;SDS011;35622;52.008;5.426;2023-12-28T02:43:16;7.63;;;2.17;;
49730;SDS011;35622;52.008;5.426;2023-12-28T02:45:41;5.65;;;1.88;;
49730;SDS011;35622;52.008;5.426;2023-12-28T02:48:07;6.47;;;2.28;;
49730;SDS011;35622;52.008;5.426;2023-12-28T02:50:33;4.35;;;1.80;;
49730;SDS011;35622;52.008;5.426;2023-12-28T02:52:59;5.47;;;2.40;;
49730;SDS011;35622;52.008;5.426;2023-12-28T02:55:25;6.07;;;2.40;;
49730;SDS011;35622;52.008;5.426;2023-12-28T02:57:51;6.93;;;2.60;;
49730;SDS011;35622;52.008;5.426;2023-12-28T03:00:20;4.85;;;1.80;;
49730;SDS011;35622;52.008;5.426;2023-12-28T03:02:46;6.03;;;2.05;;
49730;SDS011;35622;52.008;5.426;2023-12-28T03:05:11;4.47;;;1.77;;
49730;SDS011;35622;52.008;5.426;2023-12-28T03:07:37;5.60;;;2.17;;
49730;SDS011;35622;52.008;5.426;2023-12-28T03:10:03;7.43;;;1.90;;
49730;SDS011;35622;52.008;5.426;2023-12-28T03:12:30;7.13;;;2.13;;
49730;SDS011;35622;52.008;5.426;2023-12-28T03:14:55;7.70;;;2.20;;
49730;SDS011;35622;52.008;5.426;2023-12-28T03:17:21;9.38;;;2.20;;
49730;SDS011;35622;52.008;5.426;2023-12-28T03:19:47;4.05;;;1.90;;
49730;SDS011;35622;52.008;5.426;2023-12-28T03:22:12;5.47;;;1.80;;
49730;SDS011;35622;52.008;5.426;2023-12-28T03:24:39;5.60;;;1.92;;
49730;SDS011;35622;52.008;5.426;2023-12-28T03:27:05;4.18;;;1.85;;
49730;SDS011;35622;52.008;5.426;2023-12-28T03:29:31;5.43;;;1.73;;
49730;SDS011;35622;52.008;5.426;2023-12-28T03:31:56;5.60;;;1.70;;
49730;SDS011;35622;52.008;5.426;2023-12-28T03:34:22;5.07;;;1.80;;
49730;SDS011;35622;52.008;5.426;2023-12-28T03:36:49;5.78;;;1.92;;
49730;SDS011;35622;52.008;5.426;2023-12-28T03:39:14;6.03;;;2.25;;
49730;SDS011;35622;52.008;5.426;2023-12-28T03:41:40;8.63;;;2.33;;
49730;SDS011;35622;52.008;5.426;2023-12-28T03:44:06;4.13;;;2.08;;
49730;SDS011;35622;52.008;5.426;2023-12-28T03:46:32;7.45;;;1.92;;
49730;SDS011;35622;52.008;5.426;2023-12-28T03:48:57;7.72;;;2.30;;
49730;SDS011;35622;52.008;5.426;2023-12-28T03:51:23;6.47;;;1.98;;
49730;SDS011;35622;52.008;5.426;2023-12-28T03:53:49;7.28;;;1.90;;
49730;SDS011;35622;52.008;5.426;2023-12-28T03:56:21;11.48;;;2.20;;
49730;SDS011;35622;52.008;5.426;2023-12-28T03:58:48;6.35;;;2.42;;
49730;SDS011;35622;52.008;5.426;2023-12-28T04:01:14;6.35;;;2.20;;
49730;SDS011;35622;52.008;5.426;2023-12-28T04:03:40;5.60;;;1.77;;
49730;SDS011;35622;52.008;5.426;2023-12-28T04:06:06;5.22;;;1.70;;
49730;SDS011;35622;52.008;5.426;2023-12-28T04:08:32;7.45;;;1.95;;
49730;SDS011;35622;52.008;5.426;2023-12-28T04:10:57;6.53;;;1.80;;
49730;SDS011;35622;52.008;5.426;2023-12-28T04:13:23;7.00;;;1.77;;
49730;SDS011;35622;52.008;5.426;2023-12-28T04:15:49;9.68;;;2.35;;
49730;SDS011;35622;52.008;5.426;2023-12-28T04:18:14;5.38;;;2.00;;
49730;SDS011;35622;52.008;5.426;2023-12-28T04:20:42;7.35;;;2.25;;
49730;SDS011;35622;52.008;5.426;2023-12-28T04:23:07;5.75;;;2.05;;
49730;SDS011;35622;52.008;5.426;2023-12-28T04:25:33;7.57;;;2.00;;
49730;SDS011;35622;52.008;5.426;2023-12-28T04:27:59;8.32;;;1.90;;
49730;SDS011;35622;52.008;5.426;2023-12-28T04:30:24;8.98;;;1.80;;
49730;SDS011;35622;52.008;5.426;2023-12-28T04:32:50;8.20;;;2.40;;
49730;SDS011;35622;52.008;5.426;2023-12-28T04:35:15;9.18;;;2.13;;
49730;SDS011;35622;52.008;5.426;2023-12-28T04:37:41;7.70;;;1.77;;
49730;SDS011;35622;52.008;5.426;2023-12-28T04:40:07;8.50;;;1.85;;
49730;SDS011;35622;52.008;5.426;2023-12-28T04:42:33;10.32;;;2.22;;
49730;SDS011;35622;52.008;5.426;2023-12-28T04:44:58;6.55;;;1.88;;
49730;SDS011;35622;52.008;5.426;2023-12-28T04:47:24;8.00;;;1.98;;
49730;SDS011;35622;52.008;5.426;2023-12-28T04:49:49;7.35;;;1.80;;
49730;SDS011;35622;52.008;5.426;2023-12-28T04:52:15;4.85;;;1.40;;
49730;SDS011;35622;52.008;5.426;2023-12-28T04:54:40;5.88;;;1.80;;
49730;SDS011;35622;52.008;5.426;2023-12-28T04:57:06;5.40;;;1.70;;
49730;SDS011;35622;52.008;5.426;2023-12-28T04:59:37;9.95;;;1.90;;
49730;SDS011;35622;52.008;5.426;2023-12-28T05:02:06;7.20;;;2.00;;
49730;SDS011;35622;52.008;5.426;2023-12-28T05:04:32;8.38;;;2.00;;
49730;SDS011;35622;52.008;5.426;2023-12-28T05:06:58;9.00;;;1.80;;
49730;SDS011;35622;52.008;5.426;2023-12-28T05:09:24;7.15;;;1.80;;
49730;SDS011;35622;52.008;5.426;2023-12-28T05:11:49;8.18;;;1.92;;
49730;SDS011;35622;52.008;5.426;2023-12-28T05:14:15;10.30;;;2.08;;
49730;SDS011;35622;52.008;5.426;2023-12-28T05:16:40;8.85;;;2.00;;
49730;SDS011;35622;52.008;5.426;2023-12-28T05:19:06;7.07;;;1.77;;
49730;SDS011;35622;52.008;5.426;2023-12-28T05:21:32;8.27;;;2.20;;
49730;SDS011;35622;52.008;5.426;2023-12-28T05:23:57;6.13;;;1.52;;
49730;SDS011;35622;52.008;5.426;2023-12-28T05:26:23;10.32;;;1.70;;
49730;SDS011;35622;52.008;5.426;2023-12-28T05:28:49;9.35;;;1.83;;
49730;SDS011;35622;52.008;5.426;2023-12-28T05:31:14;10.85;;;1.90;;
49730;SDS011;35622;52.008;5.426;2023-12-28T05:33:40;10.18;;;1.90;;
49730;SDS011;35622;52.008;5.426;2023-12-28T05:36:06;13.20;;;2.42;;
49730;SDS011;35622;52.008;5.426;2023-12-28T05:38:32;9.65;;;2.20;;
49730;SDS011;35622;52.008;5.426;2023-12-28T05:40:58;9.63;;;1.90;;
49730;SDS011;35622;52.008;5.426;2023-12-28T05:43:24;8.90;;;1.95;;
49730;SDS011;35622;52.008;5.426;2023-12-28T05:45:50;9.30;;;1.95;;
49730;SDS011;35622;52.008;5.426;2023-12-28T05:48:15;9.07;;;1.70;;
49730;SDS011;35622;52.008;5.426;2023-12-28T05:50:41;13.18;;;2.15;;
49730;SDS011;35622;52.008;5.426;2023-12-28T05:53:07;7.97;;;1.65;;
49730;SDS011;35622;52.008;5.426;2023-12-28T05:55:36;10.68;;;1.90;;
49730;SDS011;35622;52.008;5.426;2023-12-28T05:58:02;9.90;;;2.17;;
49730;SDS011;35622;52.008;5.426;2023-12-28T06:00:28;8.82;;;1.80;;
49730;SDS011;35622;52.008;5.426;2023-12-28T06:02:53;10.18;;;1.80;;
49730;SDS011;35622;52.008;5.426;2023-12-28T06:05:19;13.20;;;2.25;;
49730;SDS011;35622;52.008;5.426;2023-12-28T06:07:44;10.45;;;2.05;;
49730;SDS011;35622;52.008;5.426;2023-12-28T06:10:10;13.88;;;2.10;;
49730;SDS011;35622;52.008;5.426;2023-12-28T06:12:35;7.13;;;1.67;;
49730;SDS011;35622;52.008;5.426;2023-12-28T06:15:01;11.63;;;1.90;;
49730;SDS011;35622;52.008;5.426;2023-12-28T06:17:28;10.52;;;1.80;;
49730;SDS011;35622;52.008;5.426;2023-12-28T06:19:53;14.75;;;1.90;;
49730;SDS011;35622;52.008;5.426;2023-12-28T06:22:19;10.27;;;1.70;;
49730;SDS011;35622;52.008;5.426;2023-12-28T06:24:45;10.25;;;1.85;;
49730;SDS011;35622;52.008;5.426;2023-12-28T06:27:10;10.07;;;2.35;;
49730;SDS011;35622;52.008;5.426;2023-12-28T06:29:36;8.32;;;1.92;;
49730;SDS011;35622;52.008;5.426;2023-12-28T06:32:02;8.00;;;2.08;;
49730;SDS011;35622;52.008;5.426;2023-12-28T06:34:28;12.10;;;2.20;;
49730;SDS011;35622;52.008;5.426;2023-12-28T06:36:54;10.48;;;2.17;;
49730;SDS011;35622;52.008;5.426;2023-12-28T06:39:19;16.15;;;2.55;;
49730;SDS011;35622;52.008;5.426;2023-12-28T06:41:48;9.43;;;2.13;;
49730;SDS011;35622;52.008;5.426;2023-12-28T06:44:14;9.02;;;1.80;;
49730;SDS011;35622;52.008;5.426;2023-12-28T06:46:40;9.23;;;1.95;;
49730;SDS011;35622;52.008;5.426;2023-12-28T06:49:06;11.88;;;2.00;;
49730;SDS011;35622;52.008;5.426;2023-12-28T06:51:31;8.88;;;1.70;;
49730;SDS011;35622;52.008;5.426;2023-12-28T06:53:58;13.73;;;1.92;;
49730;SDS011;35622;52.008;5.426;2023-12-28T06:56:24;9.60;;;2.20;;
49730;SDS011;35622;52.008;5.426;2023-12-28T06:58:50;13.85;;;2.05;;
49730;SDS011;35622;52.008;5.426;2023-12-28T07:01:16;11.55;;;2.28;;
49730;SDS011;35622;52.008;5.426;2023-12-28T07:03:41;13.48;;;2.45;;
49730;SDS011;35622;52.008;5.426;2023-12-28T07:06:07;10.95;;;2.15;;
49730;SDS011;35622;52.008;5.426;2023-12-28T07:08:33;10.68;;;2.10;;
49730;SDS011;35622;52.008;5.426;2023-12-28T07:10:59;10.35;;;1.80;;
49730;SDS011;35622;52.008;5.426;2023-12-28T07:13:25;14.65;;;2.25;;
49730;SDS011;35622;52.008;5.426;2023-12-28T07:15:50;8.25;;;2.22;;
49730;SDS011;35622;52.008;5.426;2023-12-28T07:18:16;12.20;;;3.63;;
49730;SDS011;35622;52.008;5.426;2023-12-28T07:20:42;14.60;;;2.53;;
49730;SDS011;35622;52.008;5.426;2023-12-28T07:23:08;17.02;;;2.20;;
49730;SDS011;35622;52.008;5.426;2023-12-28T07:25:36;11.15;;;1.85;;
49730;SDS011;35622;52.008;5.426;2023-12-28T07:28:02;15.77;;;2.38;;
49730;SDS011;35622;52.008;5.426;2023-12-28T07:30:28;13.65;;;2.03;;
49730;SDS011;35622;52.008;5.426;2023-12-28T07:32:54;19.17;;;2.95;;
49730;SDS011;35622;52.008;5.426;2023-12-28T07:35:20;11.18;;;2.20;;
49730;SDS011;35622;52.008;5.426;2023-12-28T07:37:45;14.52;;;2.88;;
49730;SDS011;35622;52.008;5.426;2023-12-28T07:40:11;12.40;;;2.15;;
49730;SDS011;35622;52.008;5.426;2023-12-28T07:42:38;10.90;;;1.90;;
49730;SDS011;35622;52.008;5.426;2023-12-28T07:45:03;11.32;;;1.80;;
49730;SDS011;35622;52.008;5.426;2023-12-28T07:47:29;8.88;;;1.80;;
49730;SDS011;35622;52.008;5.426;2023-12-28T07:49:55;14.13;;;2.20;;
49730;SDS011;35622;52.008;5.426;2023-12-28T07:52:21;11.95;;;2.47;;
49730;SDS011;35622;52.008;5.426;2023-12-28T07:54:46;9.90;;;1.80;;
49730;SDS011;35622;52.008;5.426;2023-12-28T07:57:12;10.85;;;1.98;;
49730;SDS011;35622;52.008;5.426;2023-12-28T07:59:37;16.95;;;2.30;;
49730;SDS011;35622;52.008;5.426;2023-12-28T08:02:03;12.85;;;1.90;;
49730;SDS011;35622;52.008;5.426;2023-12-28T08:04:29;15.20;;;2.25;;
49730;SDS011;35622;52.008;5.426;2023-12-28T08:06:55;11.35;;;2.38;;
49730;SDS011;35622;52.008;5.426;2023-12-28T08:09:20;13.18;;;1.95;;
49730;SDS011;35622;52.008;5.426;2023-12-28T08:11:46;11.25;;;2.00;;
49730;SDS011;35622;52.008;5.426;2023-12-28T08:14:12;11.40;;;2.22;;
49730;SDS011;35622;52.008;5.426;2023-12-28T08:16:37;10.00;;;2.13;;
49730;SDS011;35622;52.008;5.426;2023-12-28T08:19:03;10.88;;;2.22;;
49730;SDS011;35622;52.008;5.426;2023-12-28T08:21:29;14.50;;;2.65;;
49730;SDS011;35622;52.008;5.426;2023-12-28T08:23:55;16.02;;;2.90;;
49730;SDS011;35622;52.008;5.426;2023-12-28T08:26:20;13.10;;;2.35;;
49730;SDS011;35622;52.008;5.426;2023-12-28T08:28:46;16.42;;;2.63;;
49730;SDS011;35622;52.008;5.426;2023-12-28T08:31:12;11.65;;;1.92;;
49730;SDS011;35622;52.008;5.426;2023-12-28T08:33:38;12.48;;;2.05;;
49730;SDS011;35622;52.008;5.426;2023-12-28T08:36:05;15.25;;;2.38;;
49730;SDS011;35622;52.008;5.426;2023-12-28T08:38:33;14.73;;;2.45;;
49730;SDS011;35622;52.008;5.426;2023-12-28T08:40:59;14.52;;;2.17;;
49730;SDS011;35622;52.008;5.426;2023-12-28T08:43:25;12.73;;;2.20;;
49730;SDS011;35622;52.008;5.426;2023-12-28T08:45:51;16.92;;;2.35;;
49730;SDS011;35622;52.008;5.426;2023-12-28T08:48:19;9.80;;;2.53;;
49730;SDS011;35622;52.008;5.426;2023-12-28T08:50:44;12.57;;;2.00;;
49730;SDS011;35622;52.008;5.426;2023-12-28T08:53:10;13.73;;;2.60;;
49730;SDS011;35622;52.008;5.426;2023-12-28T08:55:36;16.88;;;2.30;;
49730;SDS011;35622;52.008;5.426;2023-12-28T08:58:01;9.65;;;2.25;;
49730;SDS011;35622;52.008;5.426;2023-12-28T09:00:27;15.07;;;2.00;;
49730;SDS011;35622;52.008;5.426;2023-12-28T09:02:53;12.38;;;2.38;;
49730;SDS011;35622;52.008;5.426;2023-12-28T09:05:18;16.05;;;1.92;;
49730;SDS011;35622;52.008;5.426;2023-12-28T09:07:44;13.00;;;2.90;;
49730;SDS011;35622;52.008;5.426;2023-12-28T09:10:10;10.70;;;2.10;;
49730;SDS011;35622;52.008;5.426;2023-12-28T09:12:36;16.50;;;2.47;;
49730;SDS011;35622;52.008;5.426;2023-12-28T09:15:04;12.98;;;2.17;;
49730;SDS011;35622;52.008;5.426;2023-12-28T09:17:30;14.20;;;2.10;;
49730;SDS011;35622;52.008;5.426;2023-12-28T09:19:55;13.93;;;2.15;;
49730;SDS011;35622;52.008;5.426;2023-12-28T09:22:23;21.48;;;2.95;;
49730;SDS011;35622;52.008;5.426;2023-12-28T09:24:49;18.08;;;2.10;;
49730;SDS011;35622;52.008;5.426;2023-12-28T09:27:14;13.43;;;2.30;;
49730;SDS011;35622;52.008;5.426;2023-12-28T09:29:40;12.35;;;1.98;;
49730;SDS011;35622;52.008;5.426;2023-12-28T09:32:06;13.93;;;1.90;;
49730;SDS011;35622;52.008;5.426;2023-12-28T09:34:32;17.83;;;2.55;;
49730;SDS011;35622;52.008;5.426;2023-12-28T09:36:58;12.85;;;1.92;;
49730;SDS011;35622;52.008;5.426;2023-12-28T09:39:24;13.60;;;2.28;;
49730;SDS011;35622;52.008;5.426;2023-12-28T09:41:54;12.27;;;1.92;;
49730;SDS011;35622;52.008;5.426;2023-12-28T09:44:24;13.90;;;1.90;;
49730;SDS011;35622;52.008;5.426;2023-12-28T09:46:50;15.95;;;2.25;;
49730;SDS011;35622;52.008;5.426;2023-12-28T09:49:18;14.07;;;2.25;;
49730;SDS011;35622;52.008;5.426;2023-12-28T09:51:46;10.57;;;1.58;;
49730;SDS011;35622;52.008;5.426;2023-12-28T09:54:12;13.18;;;1.90;;
49730;SDS011;35622;52.008;5.426;2023-12-28T09:56:38;10.60;;;1.58;;
49730;SDS011;35622;52.008;5.426;2023-12-28T09:59:05;13.32;;;2.30;;
49730;SDS011;35622;52.008;5.426;2023-12-28T10:01:32;13.52;;;2.20;;
49730;SDS011;35622;52.008;5.426;2023-12-28T10:03:59;16.83;;;2.60;;
49730;SDS011;35622;52.008;5.426;2023-12-28T10:06:25;11.90;;;2.20;;
49730;SDS011;35622;52.008;5.426;2023-12-28T10:08:51;12.85;;;2.13;;
49730;SDS011;35622;52.008;5.426;2023-12-28T10:11:17;14.40;;;2.33;;
49730;SDS011;35622;52.008;5.426;2023-12-28T10:13:44;12.07;;;2.30;;
49730;SDS011;35622;52.008;5.426;2023-12-28T10:16:11;16.02;;;2.63;;
49730;SDS011;35622;52.008;5.426;2023-12-28T10:18:40;11.57;;;2.35;;
49730;SDS011;35622;52.008;5.426;2023-12-28T10:21:10;14.60;;;2.45;;
49730;SDS011;35622;52.008;5.426;2023-12-28T10:23:36;12.50;;;2.08;;
49730;SDS011;35622;52.008;5.426;2023-12-28T10:26:03;15.88;;;2.53;;
49730;SDS011;35622;52.008;5.426;2023-12-28T10:28:32;12.82;;;2.08;;
49730;SDS011;35622;52.008;5.426;2023-12-28T10:30:59;15.10;;;2.30;;
49730;SDS011;35622;52.008;5.426;2023-12-28T10:33:26;10.70;;;2.13;;
49730;SDS011;35622;52.008;5.426;2023-12-28T10:35:52;11.15;;;2.75;;
49730;SDS011;35622;52.008;5.426;2023-12-28T10:38:19;10.40;;;1.92;;
49730;SDS011;35622;52.008;5.426;2023-12-28T10:40:45;15.27;;;2.05;;
49730;SDS011;35622;52.008;5.426;2023-12-28T10:43:12;13.10;;;1.88;;
49730;SDS011;35622;52.008;5.426;2023-12-28T10:45:41;20.10;;;2.22;;
49730;SDS011;35622;52.008;5.426;2023-12-28T10:48:11;11.02;;;2.17;;
49730;SDS011;35622;52.008;5.426;2023-12-28T10:50:47;12.90;;;2.25;;
49730;SDS011;35622;52.008;5.426;2023-12-28T10:53:33;15.68;;;2.45;;
49730;SDS011;35622;52.008;5.426;2023-12-28T10:59:24;17.30;;;3.08;;
49730;SDS011;35622;52.008;5.426;2023-12-28T11:01:57;12.05;;;2.33;;
49730;SDS011;35622;52.008;5.426;2023-12-28T11:07:13;12.52;;;2.47;;
49730;SDS011;35622;52.008;5.426;2023-12-28T11:09:44;9.60;;;1.85;;
49730;SDS011;35622;52.008;5.426;2023-12-28T11:12:10;16.63;;;2.75;;
49730;SDS011;35622;52.008;5.426;2023-12-28T11:14:39;10.45;;;2.38;;
49730;SDS011;35622;52.008;5.426;2023-12-28T11:17:06;15.52;;;2.25;;
49730;SDS011;35622;52.008;5.426;2023-12-28T11:19:32;14.35;;;2.53;;
49730;SDS011;35622;52.008;5.426;2023-12-28T11:21:58;17.90;;;2.50;;
49730;SDS011;35622;52.008;5.426;2023-12-28T11:24:26;14.90;;;2.17;;
49730;SDS011;35622;52.008;5.426;2023-12-28T11:26:53;15.43;;;2.25;;
49730;SDS011;35622;52.008;5.426;2023-12-28T11:29:22;15.25;;;2.72;;
49730;SDS011;35622;52.008;5.426;2023-12-28T11:31:52;12.32;;;2.33;;
49730;SDS011;35622;52.008;5.426;2023-12-28T11:34:19;16.67;;;2.60;;
49730;SDS011;35622;52.008;5.426;2023-12-28T11:36:49;15.27;;;2.20;;
49730;SDS011;35622;52.008;5.426;2023-12-28T11:39:32;16.55;;;2.22;;
49730;SDS011;35622;52.008;5.426;2023-12-28T11:42:00;18.45;;;3.10;;
49730;SDS011;35622;52.008;5.426;2023-12-28T11:44:31;20.73;;;3.05;;
49730;SDS011;35622;52.008;5.426;2023-12-28T11:47:10;18.65;;;2.85;;
49730;SDS011;35622;52.008;5.426;2023-12-28T11:49:39;16.65;;;2.72;;
49730;SDS011;35622;52.008;5.426;2023-12-28T11:52:06;12.80;;;2.42;;
49730;SDS011;35622;52.008;5.426;2023-12-28T11:54:32;19.50;;;2.95;;
49730;SDS011;35622;52.008;5.426;2023-12-28T11:56:58;16.95;;;2.33;;
49730;SDS011;35622;52.008;5.426;2023-12-28T11:59:23;13.02;;;3.35;;
49730;SDS011;35622;52.008;5.426;2023-12-28T12:01:52;14.88;;;2.80;;
49730;SDS011;35622;52.008;5.426;2023-12-28T12:04:20;12.85;;;1.70;;
49730;SDS011;35622;52.008;5.426;2023-12-28T12:06:46;13.85;;;2.40;;
49730;SDS011;35622;52.008;5.426;2023-12-28T12:09:13;18.70;;;2.92;;
49730;SDS011;35622;52.008;5.426;2023-12-28T12:11:39;16.52;;;2.10;;
49730;SDS011;35622;52.008;5.426;2023-12-28T12:14:08;13.20;;;2.20;;
49730;SDS011;35622;52.008;5.426;2023-12-28T12:16:35;11.55;;;1.88;;
49730;SDS011;35622;52.008;5.426;2023-12-28T12:19:04;16.02;;;2.60;;
49730;SDS011;35622;52.008;5.426;2023-12-28T12:21:32;12.45;;;2.33;;
49730;SDS011;35622;52.008;5.426;2023-12-28T12:23:58;15.52;;;2.42;;
49730;SDS011;35622;52.008;5.426;2023-12-28T12:26:24;12.05;;;2.30;;
49730;SDS011;35622;52.008;5.426;2023-12-28T12:28:51;15.27;;;2.42;;
49730;SDS011;35622;52.008;5.426;2023-12-28T12:31:16;17.40;;;2.97;;
49730;SDS011;35622;52.008;5.426;2023-12-28T12:33:42;13.13;;;2.00;;
49730;SDS011;35622;52.008;5.426;2023-12-28T12:36:08;15.57;;;2.55;;
49730;SDS011;35622;52.008;5.426;2023-12-28T12:38:35;14.30;;;2.40;;
49730;SDS011;35622;52.008;5.426;2023-12-28T12:41:01;15.10;;;2.75;;
49730;SDS011;35622;52.008;5.426;2023-12-28T12:43:27;8.82;;;1.92;;
49730;SDS011;35622;52.008;5.426;2023-12-28T12:45:53;15.75;;;2.25;;
49730;SDS011;35622;52.008;5.426;2023-12-28T12:48:18;16.40;;;2.55;;
49730;SDS011;35622;52.008;5.426;2023-12-28T12:50:44;16.50;;;2.00;;
49730;SDS011;35622;52.008;5.426;2023-12-28T12:53:10;12.63;;;3.08;;
49730;SDS011;35622;52.008;5.426;2023-12-28T12:55:37;12.13;;;2.95;;
49730;SDS011;35622;52.008;5.426;2023-12-28T12:58:04;12.38;;;1.80;;
49730;SDS011;35622;52.008;5.426;2023-12-28T13:00:34;16.50;;;2.33;;
49730;SDS011;35622;52.008;5.426;2023-12-28T13:03:00;13.50;;;2.13;;
49730;SDS011;35622;52.008;5.426;2023-12-28T13:05:26;16.00;;;2.70;;
49730;SDS011;35622;52.008;5.426;2023-12-28T13:07:53;15.13;;;2.47;;
49730;SDS011;35622;52.008;5.426;2023-12-28T13:10:19;16.67;;;2.70;;
49730;SDS011;35622;52.008;5.426;2023-12-28T13:12:45;14.50;;;2.30;;
49730;SDS011;35622;52.008;5.426;2023-12-28T13:15:11;16.52;;;3.15;;
49730;SDS011;35622;52.008;5.426;2023-12-28T13:17:37;14.30;;;2.38;;
49730;SDS011;35622;52.008;5.426;2023-12-28T13:20:06;15.48;;;2.72;;
49730;SDS011;35622;52.008;5.426;2023-12-28T13:22:32;15.93;;;2.65;;
49730;SDS011;35622;52.008;5.426;2023-12-28T13:24:59;18.55;;;2.42;;
49730;SDS011;35622;52.008;5.426;2023-12-28T13:27:24;13.65;;;2.15;;
49730;SDS011;35622;52.008;5.426;2023-12-28T13:29:50;12.57;;;2.42;;
49730;SDS011;35622;52.008;5.426;2023-12-28T13:32:16;17.73;;;2.53;;
49730;SDS011;35622;52.008;5.426;2023-12-28T13:34:41;13.32;;;2.03;;
49730;SDS011;35622;52.008;5.426;2023-12-28T13:37:07;20.77;;;2.53;;
49730;SDS011;35622;52.008;5.426;2023-12-28T13:39:32;14.88;;;2.30;;
49730;SDS011;35622;52.008;5.426;2023-12-28T13:42:03;13.52;;;2.35;;
49730;SDS011;35622;52.008;5.426;2023-12-28T13:44:30;17.20;;;2.83;;
49730;SDS011;35622;52.008;5.426;2023-12-28T13:46:56;11.90;;;2.50;;
49730;SDS011;35622;52.008;5.426;2023-12-28T13:49:21;13.15;;;2.50;;
49730;SDS011;35622;52.008;5.426;2023-12-28T13:51:47;16.77;;;2.63;;
49730;SDS011;35622;52.008;5.426;2023-12-28T13:54:12;15.25;;;2.50;;
49730;SDS011;35622;52.008;5.426;2023-12-28T13:56:38;12.30;;;2.40;;
49730;SDS011;35622;52.008;5.426;2023-12-28T13:59:04;13.55;;;2.13;;
49730;SDS011;35622;52.008;5.426;2023-12-28T14:01:29;19.13;;;2.55;;
49730;SDS011;35622;52.008;5.426;2023-12-28T14:03:55;16.02;;;2.50;;
49730;SDS011;35622;52.008;5.426;2023-12-28T14:06:21;15.25;;;2.55;;
49730;SDS011;35622;52.008;5.426;2023-12-28T14:08:46;13.48;;;1.90;;
49730;SDS011;35622;52.008;5.426;2023-12-28T14:11:12;21.17;;;2.75;;
49730;SDS011;35622;52.008;5.426;2023-12-28T14:13:38;17.70;;;3.22;;
49730;SDS011;35622;52.008;5.426;2023-12-28T14:16:03;20.92;;;2.97;;
49730;SDS011;35622;52.008;5.426;2023-12-28T14:18:29;12.85;;;2.38;;
49730;SDS011;35622;52.008;5.426;2023-12-28T14:20:55;15.30;;;2.30;;
49730;SDS011;35622;52.008;5.426;2023-12-28T14:23:20;13.00;;;2.85;;
49730;SDS011;35622;52.008;5.426;2023-12-28T14:25:46;12.20;;;2.10;;
49730;SDS011;35622;52.008;5.426;2023-12-28T14:28:18;11.35;;;2.33;;
49730;SDS011;35622;52.008;5.426;2023-12-28T14:30:44;20.50;;;2.53;;
49730;SDS011;35622;52.008;5.426;2023-12-28T14:33:10;12.43;;;2.20;;
49730;SDS011;35622;52.008;5.426;2023-12-28T14:35:36;15.18;;;2.90;;
49730;SDS011;35622;52.008;5.426;2023-12-28T14:38:04;17.58;;;2.90;;
49730;SDS011;35622;52.008;5.426;2023-12-28T14:40:31;16.40;;;2.83;;
49730;SDS011;35622;52.008;5.426;2023-12-28T14:42:57;15.18;;;2.55;;
49730;SDS011;35622;52.008;5.426;2023-12-28T14:45:23;14.05;;;2.58;;
49730;SDS011;35622;52.008;5.426;2023-12-28T14:47:48;9.48;;;2.10;;